sensor_id;sensor_type;location;lat;lon;timestamp;pressure;altitude;pressure_sealevel;temperature
40968;BMP280;57377;45.130;6.038;2022-07-18T00:00:01;93228.88;;;24.32
40968;BMP280;57377;45.130;6.038;2022-07-18T00:02:26;93226.22;;;24.32
40968;BMP280;57377;45.130;6.038;2022-07-18T00:04:52;93239.09;;;24.30
40968;BMP280;57377;45.130;6.038;2022-07-18T00:07:18;93227.44;;;24.38
40968;BMP280;57377;45.130;6.038;2022-07-18T00:09:43;93228.88;;;24.32
40968;BMP280;57377;45.130;6.038;2022-07-18T00:12:10;93222.16;;;24.42
40968;BMP280;57377;45.130;6.038;2022-07-18T00:14:37;93223.72;;;24.43
40968;BMP280;57377;45.130;6.038;2022-07-18T00:17:03;93234.38;;;24.43
40968;BMP280;57377;45.130;6.038;2022-07-18T00:19:29;93226.38;;;24.43
40968;BMP280;57377;45.130;6.038;2022-07-18T00:21:54;93222.34;;;24.11
40968;BMP280;57377;45.130;6.038;2022-07-18T00:24:19;93217.66;;;24.23
40968;BMP280;57377;45.130;6.038;2022-07-18T00:26:45;93233.13;;;24.18
40968;BMP280;57377;45.130;6.038;2022-07-18T00:29:10;93217.56;;;24.39
40968;BMP280;57377;45.130;6.038;2022-07-18T00:31:36;93218.88;;;24.48
40968;BMP280;57377;45.130;6.038;2022-07-18T00:34:02;93219.63;;;24.26
40968;BMP280;57377;45.130;6.038;2022-07-18T00:36:29;93217.66;;;24.05
40968;BMP280;57377;45.130;6.038;2022-07-18T00:38:55;93217.66;;;24.05
40968;BMP280;57377;45.130;6.038;2022-07-18T00:41:20;93225.63;;;24.05
40968;BMP280;57377;45.130;6.038;2022-07-18T00:43:47;93245.91;;;24.13
40968;BMP280;57377;45.130;6.038;2022-07-18T00:46:13;93221.94;;;24.09
40968;BMP280;57377;45.130;6.038;2022-07-18T00:48:42;93221.44;;;24.04
40968;BMP280;57377;45.130;6.038;2022-07-18T00:51:08;93223.97;;;23.97
40968;BMP280;57377;45.130;6.038;2022-07-18T00:53:34;93227.47;;;23.63
40968;BMP280;57377;45.130;6.038;2022-07-18T00:56:02;93224.81;;;23.82
40968;BMP280;57377;45.130;6.038;2022-07-18T00:58:28;93224.88;;;23.85
40968;BMP280;57377;45.130;6.038;2022-07-18T01:00:54;93224.25;;;23.92
40968;BMP280;57377;45.130;6.038;2022-07-18T01:03:38;93228.28;;;24.05
40968;BMP280;57377;45.130;6.038;2022-07-18T01:06:04;93232.22;;;24.11
40968;BMP280;57377;45.130;6.038;2022-07-18T01:08:29;93228.09;;;23.94
40968;BMP280;57377;45.130;6.038;2022-07-18T01:10:55;93216.28;;;23.73
40968;BMP280;57377;45.130;6.038;2022-07-18T01:13:20;93224.84;;;23.67
40968;BMP280;57377;45.130;6.038;2022-07-18T01:15:46;93216.31;;;23.77
40968;BMP280;57377;45.130;6.038;2022-07-18T01:18:11;93218.59;;;23.75
40968;BMP280;57377;45.130;6.038;2022-07-18T01:20:37;93215.50;;;23.54
40968;BMP280;57377;45.130;6.038;2022-07-18T01:23:03;93228.69;;;23.69
40968;BMP280;57377;45.130;6.038;2022-07-18T01:25:29;93219.06;;;23.61
40968;BMP280;57377;45.130;6.038;2022-07-18T01:27:55;93221.88;;;23.87
40968;BMP280;57377;45.130;6.038;2022-07-18T01:30:22;93224.31;;;23.95
40968;BMP280;57377;45.130;6.038;2022-07-18T01:32:55;93221.78;;;23.83
40968;BMP280;57377;45.130;6.038;2022-07-18T01:35:22;93236.81;;;23.76
40968;BMP280;57377;45.130;6.038;2022-07-18T01:37:52;93237.97;;;23.94
40968;BMP280;57377;45.130;6.038;2022-07-18T01:40:18;93230.53;;;23.84
40968;BMP280;57377;45.130;6.038;2022-07-18T01:42:43;93232.50;;;23.68
40968;BMP280;57377;45.130;6.038;2022-07-18T01:45:08;93222.50;;;23.47
40968;BMP280;57377;45.130;6.038;2022-07-18T01:47:34;93233.84;;;23.44
40968;BMP280;57377;45.130;6.038;2022-07-18T01:49:59;93237.69;;;23.80
40968;BMP280;57377;45.130;6.038;2022-07-18T01:52:25;93242.91;;;23.77
40968;BMP280;57377;45.130;6.038;2022-07-18T01:54:50;93228.84;;;23.57
40968;BMP280;57377;45.130;6.038;2022-07-18T01:57:16;93230.47;;;23.47
40968;BMP280;57377;45.130;6.038;2022-07-18T01:59:41;93240.31;;;23.27
40968;BMP280;57377;45.130;6.038;2022-07-18T02:02:07;93224.94;;;23.36
40968;BMP280;57377;45.130;6.038;2022-07-18T02:04:32;93229.13;;;23.37
40968;BMP280;57377;45.130;6.038;2022-07-18T02:07:16;93227.66;;;23.40
40968;BMP280;57377;45.130;6.038;2022-07-18T02:09:41;93224.22;;;23.54
40968;BMP280;57377;45.130;6.038;2022-07-18T02:12:07;93234.78;;;23.36
40968;BMP280;57377;45.130;6.038;2022-07-18T02:14:32;93233.91;;;23.47
40968;BMP280;57377;45.130;6.038;2022-07-18T02:16:58;93231.78;;;23.37
40968;BMP280;57377;45.130;6.038;2022-07-18T02:19:23;93232.13;;;23.36
40968;BMP280;57377;45.130;6.038;2022-07-18T02:21:49;93236.25;;;23.33
40968;BMP280;57377;45.130;6.038;2022-07-18T02:24:14;93243.97;;;23.23
40968;BMP280;57377;45.130;6.038;2022-07-18T02:26:39;93239.31;;;23.01
40968;BMP280;57377;45.130;6.038;2022-07-18T02:29:05;93248.53;;;23.07
40968;BMP280;57377;45.130;6.038;2022-07-18T02:31:30;93236.78;;;23.23
40968;BMP280;57377;45.130;6.038;2022-07-18T02:33:56;93232.13;;;23.36
40968;BMP280;57377;45.130;6.038;2022-07-18T02:36:21;93239.09;;;23.25
40968;BMP280;57377;45.130;6.038;2022-07-18T02:38:46;93230.59;;;23.01
40968;BMP280;57377;45.130;6.038;2022-07-18T02:41:12;93224.38;;;23.27
40968;BMP280;57377;45.130;6.038;2022-07-18T02:43:37;93223.16;;;23.25
40968;BMP280;57377;45.130;6.038;2022-07-18T02:46:03;93237.31;;;23.14
40968;BMP280;57377;45.130;6.038;2022-07-18T02:48:29;93237.34;;;22.98
40968;BMP280;57377;45.130;6.038;2022-07-18T02:50:54;93236.28;;;23.18
40968;BMP280;57377;45.130;6.038;2022-07-18T02:53:19;93239.31;;;23.01
40968;BMP280;57377;45.130;6.038;2022-07-18T02:55:48;93241.97;;;23.01
40968;BMP280;57377;45.130;6.038;2022-07-18T02:58:14;93231.09;;;23.06
40968;BMP280;57377;45.130;6.038;2022-07-18T03:00:39;93234.69;;;22.98
40968;BMP280;57377;45.130;6.038;2022-07-18T03:03:05;93236.59;;;22.98
40968;BMP280;57377;45.130;6.038;2022-07-18T03:05:30;93238.13;;;22.99
40968;BMP280;57377;45.130;6.038;2022-07-18T03:07:55;93245.41;;;22.86
40968;BMP280;57377;45.130;6.038;2022-07-18T03:10:21;93227.84;;;22.82
40968;BMP280;57377;45.130;6.038;2022-07-18T03:12:46;93231.19;;;22.94
40968;BMP280;57377;45.130;6.038;2022-07-18T03:15:12;93235.38;;;22.65
40968;BMP280;57377;45.130;6.038;2022-07-18T03:17:37;93237.78;;;22.85
40968;BMP280;57377;45.130;6.038;2022-07-18T03:20:03;93242.38;;;22.88
40968;BMP280;57377;45.130;6.038;2022-07-18T03:22:28;93235.97;;;23.04
40968;BMP280;57377;45.130;6.038;2022-07-18T03:24:54;93238.72;;;22.62
40968;BMP280;57377;45.130;6.038;2022-07-18T03:27:19;93244.69;;;22.74
40968;BMP280;57377;45.130;6.038;2022-07-18T03:29:44;93233.66;;;22.57
40968;BMP280;57377;45.130;6.038;2022-07-18T03:32:10;93232.38;;;22.97
40968;BMP280;57377;45.130;6.038;2022-07-18T03:34:35;93236.75;;;22.74
40968;BMP280;57377;45.130;6.038;2022-07-18T03:37:01;93231.66;;;22.54
40968;BMP280;57377;45.130;6.038;2022-07-18T03:39:26;93227.66;;;22.75
40968;BMP280;57377;45.130;6.038;2022-07-18T03:41:51;93226.28;;;22.81
40968;BMP280;57377;45.130;6.038;2022-07-18T03:44:17;93228.50;;;22.64
40968;BMP280;57377;45.130;6.038;2022-07-18T03:46:43;93230.31;;;22.60
40968;BMP280;57377;45.130;6.038;2022-07-18T03:49:08;93235.81;;;22.67
40968;BMP280;57377;45.130;6.038;2022-07-18T03:51:34;93233.66;;;22.72
40968;BMP280;57377;45.130;6.038;2022-07-18T03:54:00;93232.97;;;22.75
40968;BMP280;57377;45.130;6.038;2022-07-18T03:56:25;93241.03;;;22.94
40968;BMP280;57377;45.130;6.038;2022-07-18T03:58:51;93230.41;;;22.79
40968;BMP280;57377;45.130;6.038;2022-07-18T04:01:17;93230.06;;;22.50
40968;BMP280;57377;45.130;6.038;2022-07-18T04:03:43;93232.72;;;22.65
40968;BMP280;57377;45.130;6.038;2022-07-18T04:06:08;93227.25;;;22.88
40968;BMP280;57377;45.130;6.038;2022-07-18T04:08:33;93222.72;;;22.89
40968;BMP280;57377;45.130;6.038;2022-07-18T04:10:59;93222.28;;;22.87
40968;BMP280;57377;45.130;6.038;2022-07-18T04:13:24;93232.63;;;22.92
40968;BMP280;57377;45.130;6.038;2022-07-18T04:15:49;93227.13;;;23.16
40968;BMP280;57377;45.130;6.038;2022-07-18T04:18:15;93230.97;;;23.18
40968;BMP280;57377;45.130;6.038;2022-07-18T04:20:40;93229.94;;;23.07
40968;BMP280;57377;45.130;6.038;2022-07-18T04:23:07;93226.31;;;22.96
40968;BMP280;57377;45.130;6.038;2022-07-18T04:25:36;93229.38;;;22.98
40968;BMP280;57377;45.130;6.038;2022-07-18T04:28:02;93226.97;;;22.78
40968;BMP280;57377;45.130;6.038;2022-07-18T04:30:28;93235.03;;;22.97
40968;BMP280;57377;45.130;6.038;2022-07-18T04:32:54;93239.03;;;23.06
40968;BMP280;57377;45.130;6.038;2022-07-18T04:35:21;93229.72;;;22.82
40968;BMP280;57377;45.130;6.038;2022-07-18T04:37:47;93232.31;;;22.93
40968;BMP280;57377;45.130;6.038;2022-07-18T04:40:14;93234.09;;;22.89
40968;BMP280;57377;45.130;6.038;2022-07-18T04:42:41;93226.38;;;23.00
40968;BMP280;57377;45.130;6.038;2022-07-18T04:45:06;93228.25;;;22.99
40968;BMP280;57377;45.130;6.038;2022-07-18T04:47:33;93233.00;;;22.90
40968;BMP280;57377;45.130;6.038;2022-07-18T04:49:58;93223.31;;;22.98
40968;BMP280;57377;45.130;6.038;2022-07-18T04:52:24;93227.94;;;22.85
40968;BMP280;57377;45.130;6.038;2022-07-18T04:54:49;93223.88;;;23.07
40968;BMP280;57377;45.130;6.038;2022-07-18T04:57:16;93230.50;;;22.67
40968;BMP280;57377;45.130;6.038;2022-07-18T04:59:41;93215.50;;;22.74
40968;BMP280;57377;45.130;6.038;2022-07-18T05:02:08;93223.28;;;22.37
40968;BMP280;57377;45.130;6.038;2022-07-18T05:04:34;93221.31;;;22.49
40968;BMP280;57377;45.130;6.038;2022-07-18T05:06:59;93223.53;;;22.47
40968;BMP280;57377;45.130;6.038;2022-07-18T05:09:25;93227.41;;;22.65
40968;BMP280;57377;45.130;6.038;2022-07-18T05:11:51;93220.81;;;22.59
40968;BMP280;57377;45.130;6.038;2022-07-18T05:14:16;93225.44;;;22.62
40968;BMP280;57377;45.130;6.038;2022-07-18T05:16:42;93233.81;;;22.49
40968;BMP280;57377;45.130;6.038;2022-07-18T05:19:07;93227.91;;;22.55
40968;BMP280;57377;45.130;6.038;2022-07-18T05:21:33;93222.16;;;22.68
40968;BMP280;57377;45.130;6.038;2022-07-18T05:23:58;93224.84;;;22.53
40968;BMP280;57377;45.130;6.038;2022-07-18T05:26:23;93223.53;;;22.78
40968;BMP280;57377;45.130;6.038;2022-07-18T05:28:49;93216.34;;;22.78
40968;BMP280;57377;45.130;6.038;2022-07-18T05:31:14;93223.19;;;22.64
40968;BMP280;57377;45.130;6.038;2022-07-18T05:33:40;93225.72;;;22.87
40968;BMP280;57377;45.130;6.038;2022-07-18T05:36:05;93225.50;;;22.81
40968;BMP280;57377;45.130;6.038;2022-07-18T05:38:31;93224.06;;;22.83
40968;BMP280;57377;45.130;6.038;2022-07-18T05:40:57;93223.97;;;22.34
40968;BMP280;57377;45.130;6.038;2022-07-18T05:43:22;93228.25;;;22.38
40968;BMP280;57377;45.130;6.038;2022-07-18T05:45:48;93221.34;;;22.64
40968;BMP280;57377;45.130;6.038;2022-07-18T05:48:13;93218.31;;;22.66
40968;BMP280;57377;45.130;6.038;2022-07-18T05:50:38;93218.66;;;22.49
40968;BMP280;57377;45.130;6.038;2022-07-18T05:53:04;93224.50;;;22.70
40968;BMP280;57377;45.130;6.038;2022-07-18T05:55:29;93222.44;;;22.79
40968;BMP280;57377;45.130;6.038;2022-07-18T05:57:55;93220.53;;;22.64
40968;BMP280;57377;45.130;6.038;2022-07-18T06:00:20;93232.97;;;23.55
40968;BMP280;57377;45.130;6.038;2022-07-18T06:02:49;93233.59;;;25.09
40968;BMP280;57377;45.130;6.038;2022-07-18T06:05:15;93231.44;;;26.63
40968;BMP280;57377;45.130;6.038;2022-07-18T06:07:41;93217.88;;;27.84
40968;BMP280;57377;45.130;6.038;2022-07-18T06:10:07;93223.25;;;29.03
40968;BMP280;57377;45.130;6.038;2022-07-18T06:12:33;93213.53;;;30.05
40968;BMP280;57377;45.130;6.038;2022-07-18T06:14:59;93213.50;;;30.94
40968;BMP280;57377;45.130;6.038;2022-07-18T06:17:25;93218.78;;;31.54
40968;BMP280;57377;45.130;6.038;2022-07-18T06:19:52;93217.75;;;31.85
40968;BMP280;57377;45.130;6.038;2022-07-18T06:22:19;93201.59;;;32.51
40968;BMP280;57377;45.130;6.038;2022-07-18T06:24:45;93201.16;;;33.34
40968;BMP280;57377;45.130;6.038;2022-07-18T06:27:10;93191.63;;;34.13
40968;BMP280;57377;45.130;6.038;2022-07-18T06:29:35;93217.84;;;34.55
40968;BMP280;57377;45.130;6.038;2022-07-18T06:32:01;93192.63;;;34.42
40968;BMP280;57377;45.130;6.038;2022-07-18T06:34:26;93184.25;;;34.17
40968;BMP280;57377;45.130;6.038;2022-07-18T06:36:51;93188.19;;;34.51
40968;BMP280;57377;45.130;6.038;2022-07-18T06:39:17;93183.06;;;34.92
40968;BMP280;57377;45.130;6.038;2022-07-18T06:41:44;93193.69;;;35.18
40968;BMP280;57377;45.130;6.038;2022-07-18T06:44:09;93185.72;;;35.26
40968;BMP280;57377;45.130;6.038;2022-07-18T06:46:35;93176.31;;;36.06
40968;BMP280;57377;45.130;6.038;2022-07-18T06:49:09;93166.75;;;36.18
40968;BMP280;57377;45.130;6.038;2022-07-18T06:51:35;93173.63;;;36.87
40968;BMP280;57377;45.130;6.038;2022-07-18T06:54:01;93157.25;;;37.15
40968;BMP280;57377;45.130;6.038;2022-07-18T06:56:26;93166.47;;;37.30
40968;BMP280;57377;45.130;6.038;2022-07-18T06:58:52;93169.63;;;37.04
40968;BMP280;57377;45.130;6.038;2022-07-18T07:01:18;93171.91;;;37.18
40968;BMP280;57377;45.130;6.038;2022-07-18T07:03:45;93169.94;;;37.30
40968;BMP280;57377;45.130;6.038;2022-07-18T07:06:11;93171.53;;;37.40
40968;BMP280;57377;45.130;6.038;2022-07-18T07:08:36;93163.31;;;37.07
40968;BMP280;57377;45.130;6.038;2022-07-18T07:11:02;93166.00;;;36.29
40968;BMP280;57377;45.130;6.038;2022-07-18T07:13:28;93175.84;;;35.95
40968;BMP280;57377;45.130;6.038;2022-07-18T07:15:53;93174.91;;;34.41
40968;BMP280;57377;45.130;6.038;2022-07-18T07:18:19;93177.97;;;31.63
40968;BMP280;57377;45.130;6.038;2022-07-18T07:20:47;93197.72;;;31.02
40968;BMP280;57377;45.130;6.038;2022-07-18T07:23:13;93179.31;;;30.98
40968;BMP280;57377;45.130;6.038;2022-07-18T07:25:47;93184.84;;;31.24
40968;BMP280;57377;45.130;6.038;2022-07-18T07:28:13;93187.66;;;31.10
40968;BMP280;57377;45.130;6.038;2022-07-18T07:30:38;93183.31;;;30.72
40968;BMP280;57377;45.130;6.038;2022-07-18T07:33:07;93184.72;;;30.91
40968;BMP280;57377;45.130;6.038;2022-07-18T07:35:33;93176.97;;;30.99
40968;BMP280;57377;45.130;6.038;2022-07-18T07:37:59;93184.94;;;29.40
40968;BMP280;57377;45.130;6.038;2022-07-18T07:40:27;93181.13;;;29.35
40968;BMP280;57377;45.130;6.038;2022-07-18T07:43:10;93183.59;;;30.10
40968;BMP280;57377;45.130;6.038;2022-07-18T07:45:36;93180.69;;;29.60
40968;BMP280;57377;45.130;6.038;2022-07-18T07:48:02;93172.63;;;29.60
40968;BMP280;57377;45.130;6.038;2022-07-18T07:50:28;93174.63;;;29.25
40968;BMP280;57377;45.130;6.038;2022-07-18T07:52:55;93172.31;;;29.34
40968;BMP280;57377;45.130;6.038;2022-07-18T07:55:20;93166.75;;;30.13
40968;BMP280;57377;45.130;6.038;2022-07-18T07:57:46;93168.94;;;30.32
40968;BMP280;57377;45.130;6.038;2022-07-18T08:00:12;93164.22;;;30.53
40968;BMP280;57377;45.130;6.038;2022-07-18T08:02:56;93159.25;;;30.52
40968;BMP280;57377;45.130;6.038;2022-07-18T08:08:26;93166.72;;;30.10
40968;BMP280;57377;45.130;6.038;2022-07-18T08:10:54;93151.97;;;29.68
40968;BMP280;57377;45.130;6.038;2022-07-18T08:13:29;93149.75;;;29.25
40968;BMP280;57377;45.130;6.038;2022-07-18T08:22:08;93153.19;;;28.87
40968;BMP280;57377;45.130;6.038;2022-07-18T08:27:22;93147.06;;;29.25
40968;BMP280;57377;45.130;6.038;2022-07-18T08:29:55;93141.63;;;29.66
40968;BMP280;57377;45.130;6.038;2022-07-18T08:36:30;93133.31;;;30.25
40968;BMP280;57377;45.130;6.038;2022-07-18T08:46:05;93144.63;;;30.60
40968;BMP280;57377;45.130;6.038;2022-07-18T08:49:09;93128.25;;;30.37
40968;BMP280;57377;45.130;6.038;2022-07-18T08:51:35;93130.19;;;29.41
40968;BMP280;57377;45.130;6.038;2022-07-18T08:54:12;93129.31;;;29.75
40968;BMP280;57377;45.130;6.038;2022-07-18T09:03:55;93120.19;;;30.37
40968;BMP280;57377;45.130;6.038;2022-07-18T09:09:42;93110.50;;;29.82
40968;BMP280;57377;45.130;6.038;2022-07-18T09:12:16;93105.47;;;29.95
40968;BMP280;57377;45.130;6.038;2022-07-18T09:14:46;93112.81;;;30.55
40968;BMP280;57377;45.130;6.038;2022-07-18T09:20:10;93105.81;;;31.14
40968;BMP280;57377;45.130;6.038;2022-07-18T09:22:47;93119.63;;;31.13
40968;BMP280;57377;45.130;6.038;2022-07-18T09:25:21;93105.00;;;30.70
40968;BMP280;57377;45.130;6.038;2022-07-18T09:27:51;93103.19;;;31.04
40968;BMP280;57377;45.130;6.038;2022-07-18T09:35:44;93097.03;;;31.07
40968;BMP280;57377;45.130;6.038;2022-07-18T09:38:13;93083.88;;;31.19
40968;BMP280;57377;45.130;6.038;2022-07-18T09:40:47;93092.38;;;31.14
40968;BMP280;57377;45.130;6.038;2022-07-18T09:43:21;93086.13;;;31.61
40968;BMP280;57377;45.130;6.038;2022-07-18T09:45:51;93091.72;;;31.40
40968;BMP280;57377;45.130;6.038;2022-07-18T09:48:49;93082.44;;;31.81
40968;BMP280;57377;45.130;6.038;2022-07-18T09:51:30;93087.47;;;32.08
40968;BMP280;57377;45.130;6.038;2022-07-18T09:53:59;93084.94;;;32.24
40968;BMP280;57377;45.130;6.038;2022-07-18T09:56:26;93084.00;;;32.37
40968;BMP280;57377;45.130;6.038;2022-07-18T09:59:10;93073.13;;;31.89
40968;BMP280;57377;45.130;6.038;2022-07-18T10:01:36;93078.13;;;32.16
40968;BMP280;57377;45.130;6.038;2022-07-18T10:04:01;93066.53;;;32.19
40968;BMP280;57377;45.130;6.038;2022-07-18T10:06:29;93074.16;;;32.24
40968;BMP280;57377;45.130;6.038;2022-07-18T10:08:57;93080.09;;;32.12
40968;BMP280;57377;45.130;6.038;2022-07-18T10:11:25;93074.38;;;32.10
40968;BMP280;57377;45.130;6.038;2022-07-18T10:13:51;93064.13;;;32.28
40968;BMP280;57377;45.130;6.038;2022-07-18T10:16:17;93049.91;;;31.98
40968;BMP280;57377;45.130;6.038;2022-07-18T10:18:43;93048.44;;;32.46
40968;BMP280;57377;45.130;6.038;2022-07-18T10:21:12;93045.56;;;32.33
40968;BMP280;57377;45.130;6.038;2022-07-18T10:23:51;93044.59;;;32.47
40968;BMP280;57377;45.130;6.038;2022-07-18T10:26:25;93050.47;;;32.64
40968;BMP280;57377;45.130;6.038;2022-07-18T10:31:35;93035.75;;;32.95
40968;BMP280;57377;45.130;6.038;2022-07-18T10:39:53;93027.19;;;33.00
40968;BMP280;57377;45.130;6.038;2022-07-18T10:42:29;93009.28;;;33.09
40968;BMP280;57377;45.130;6.038;2022-07-18T10:44:56;93008.16;;;33.07
40968;BMP280;57377;45.130;6.038;2022-07-18T10:47:28;93005.97;;;33.02
40968;BMP280;57377;45.130;6.038;2022-07-18T10:57:41;92988.41;;;33.32
40968;BMP280;57377;45.130;6.038;2022-07-18T11:00:10;92970.31;;;33.52
40968;BMP280;57377;45.130;6.038;2022-07-18T11:02:46;92980.63;;;33.57
40968;BMP280;57377;45.130;6.038;2022-07-18T11:23:47;92967.06;;;34.11
40968;BMP280;57377;45.130;6.038;2022-07-18T11:26:20;92960.84;;;34.14
40968;BMP280;57377;45.130;6.038;2022-07-18T11:28:47;92965.28;;;34.24
40968;BMP280;57377;45.130;6.038;2022-07-18T11:31:16;92949.31;;;34.29
40968;BMP280;57377;45.130;6.038;2022-07-18T11:33:51;92951.81;;;34.21
40968;BMP280;57377;45.130;6.038;2022-07-18T11:36:31;92946.69;;;34.42
40968;BMP280;57377;45.130;6.038;2022-07-18T13:35:51;92838.50;;;35.29
40968;BMP280;57377;45.130;6.038;2022-07-18T13:41:48;92834.25;;;35.28
40968;BMP280;57377;45.130;6.038;2022-07-18T13:44:23;92841.50;;;35.31
40968;BMP280;57377;45.130;6.038;2022-07-18T13:50:42;92831.53;;;35.28
40968;BMP280;57377;45.130;6.038;2022-07-18T13:53:23;92833.44;;;35.16
40968;BMP280;57377;45.130;6.038;2022-07-18T13:56:24;92825.34;;;35.16
40968;BMP280;57377;45.130;6.038;2022-07-18T13:58:57;92814.38;;;35.07
40968;BMP280;57377;45.130;6.038;2022-07-18T14:01:32;92809.63;;;35.11
40968;BMP280;57377;45.130;6.038;2022-07-18T14:04:26;92808.09;;;35.10
40968;BMP280;57377;45.130;6.038;2022-07-18T14:06:59;92806.47;;;35.00
40968;BMP280;57377;45.130;6.038;2022-07-18T14:09:40;92808.63;;;35.05
40968;BMP280;57377;45.130;6.038;2022-07-18T14:12:28;92801.19;;;35.09
40968;BMP280;57377;45.130;6.038;2022-07-18T14:15:03;92798.69;;;35.02
40968;BMP280;57377;45.130;6.038;2022-07-18T14:17:34;92799.22;;;34.97
40968;BMP280;57377;45.130;6.038;2022-07-18T14:23:10;92800.47;;;34.80
40968;BMP280;57377;45.130;6.038;2022-07-18T14:29:10;92782.09;;;34.75
40968;BMP280;57377;45.130;6.038;2022-07-18T14:32:00;92795.06;;;34.80
40968;BMP280;57377;45.130;6.038;2022-07-18T14:41:18;92774.19;;;34.81
40968;BMP280;57377;45.130;6.038;2022-07-18T14:44:14;92771.44;;;34.68
40968;BMP280;57377;45.130;6.038;2022-07-18T14:47:07;92777.00;;;34.77
40968;BMP280;57377;45.130;6.038;2022-07-18T14:59:58;92770.47;;;34.62
40968;BMP280;57377;45.130;6.038;2022-07-18T15:02:33;92778.16;;;34.36
40968;BMP280;57377;45.130;6.038;2022-07-18T15:05:52;92781.50;;;34.40
40968;BMP280;57377;45.130;6.038;2022-07-18T15:15:08;92777.31;;;34.23
40968;BMP280;57377;45.130;6.038;2022-07-18T15:21:30;92783.22;;;34.34
40968;BMP280;57377;45.130;6.038;2022-07-18T15:24:28;92772.59;;;34.27
40968;BMP280;57377;45.130;6.038;2022-07-18T15:37:32;92775.56;;;34.01
40968;BMP280;57377;45.130;6.038;2022-07-18T15:40:18;92771.59;;;34.05
40968;BMP280;57377;45.130;6.038;2022-07-18T15:42:55;92762.41;;;34.03
40968;BMP280;57377;45.130;6.038;2022-07-18T15:45:29;92764.47;;;34.11
40968;BMP280;57377;45.130;6.038;2022-07-18T15:51:50;92763.44;;;33.93
40968;BMP280;57377;45.130;6.038;2022-07-18T16:01:03;92763.88;;;33.76
40968;BMP280;57377;45.130;6.038;2022-07-18T16:03:36;92770.63;;;33.84
40968;BMP280;57377;45.130;6.038;2022-07-18T16:06:22;92776.22;;;33.73
40968;BMP280;57377;45.130;6.038;2022-07-18T16:08:57;92777.84;;;33.71
40968;BMP280;57377;45.130;6.038;2022-07-18T16:15:09;92754.41;;;33.52
40968;BMP280;57377;45.130;6.038;2022-07-18T16:18:02;92768.91;;;33.58
40968;BMP280;57377;45.130;6.038;2022-07-18T16:20:43;92771.00;;;33.00
40968;BMP280;57377;45.130;6.038;2022-07-18T16:23:17;92761.44;;;33.15
40968;BMP280;57377;45.130;6.038;2022-07-18T16:28:59;92757.13;;;33.01
40968;BMP280;57377;45.130;6.038;2022-07-18T16:31:29;92768.25;;;33.19
40968;BMP280;57377;45.130;6.038;2022-07-18T16:34:00;92749.16;;;33.29
40968;BMP280;57377;45.130;6.038;2022-07-18T16:36:38;92755.41;;;33.27
40968;BMP280;57377;45.130;6.038;2022-07-18T16:39:03;92748.06;;;33.27
40968;BMP280;57377;45.130;6.038;2022-07-18T16:41:30;92747.25;;;33.11
40968;BMP280;57377;45.130;6.038;2022-07-18T16:43:56;92746.16;;;33.08
40968;BMP280;57377;45.130;6.038;2022-07-18T16:46:29;92752.94;;;33.16
40968;BMP280;57377;45.130;6.038;2022-07-18T16:49:00;92746.41;;;32.98
40968;BMP280;57377;45.130;6.038;2022-07-18T16:51:29;92741.53;;;33.09
40968;BMP280;57377;45.130;6.038;2022-07-18T16:53:57;92744.03;;;33.00
40968;BMP280;57377;45.130;6.038;2022-07-18T16:56:25;92748.41;;;32.94
40968;BMP280;57377;45.130;6.038;2022-07-18T16:58:55;92761.72;;;32.85
40968;BMP280;57377;45.130;6.038;2022-07-18T17:01:21;92759.00;;;32.85
40968;BMP280;57377;45.130;6.038;2022-07-18T17:03:49;92746.50;;;32.75
40968;BMP280;57377;45.130;6.038;2022-07-18T17:06:15;92748.03;;;32.57
40968;BMP280;57377;45.130;6.038;2022-07-18T17:08:42;92758.47;;;32.36
40968;BMP280;57377;45.130;6.038;2022-07-18T17:11:13;92763.22;;;32.48
40968;BMP280;57377;45.130;6.038;2022-07-18T17:29:57;92771.00;;;32.23
40968;BMP280;57377;45.130;6.038;2022-07-18T17:32:24;92770.66;;;32.21
40968;BMP280;57377;45.130;6.038;2022-07-18T17:34:51;92776.69;;;31.87
40968;BMP280;57377;45.130;6.038;2022-07-18T17:37:20;92772.31;;;31.93
40968;BMP280;57377;45.130;6.038;2022-07-18T17:39:47;92769.63;;;31.93
40968;BMP280;57377;45.130;6.038;2022-07-18T17:42:19;92773.63;;;31.85
40968;BMP280;57377;45.130;6.038;2022-07-18T17:48:19;92780.53;;;31.86
40968;BMP280;57377;45.130;6.038;2022-07-18T17:50:45;92789.78;;;31.85
40968;BMP280;57377;45.130;6.038;2022-07-18T17:53:11;92790.56;;;31.59
40968;BMP280;57377;45.130;6.038;2022-07-18T17:55:37;92789.34;;;31.64
40968;BMP280;57377;45.130;6.038;2022-07-18T17:58:02;92793.25;;;31.59
40968;BMP280;57377;45.130;6.038;2022-07-18T18:00:28;92790.66;;;31.52
40968;BMP280;57377;45.130;6.038;2022-07-18T18:02:53;92789.91;;;31.52
40968;BMP280;57377;45.130;6.038;2022-07-18T18:05:19;92796.94;;;31.46
40968;BMP280;57377;45.130;6.038;2022-07-18T18:07:44;92807.63;;;31.49
40968;BMP280;57377;45.130;6.038;2022-07-18T18:10:09;92812.00;;;31.40
40968;BMP280;57377;45.130;6.038;2022-07-18T18:12:35;92819.47;;;31.29
40968;BMP280;57377;45.130;6.038;2022-07-18T18:15:02;92820.03;;;31.14
40968;BMP280;57377;45.130;6.038;2022-07-18T18:17:28;92818.06;;;31.18
40968;BMP280;57377;45.130;6.038;2022-07-18T18:19:54;92822.78;;;31.10
40968;BMP280;57377;45.130;6.038;2022-07-18T18:22:19;92820.47;;;31.09
40968;BMP280;57377;45.130;6.038;2022-07-18T18:24:45;92818.22;;;31.07
40968;BMP280;57377;45.130;6.038;2022-07-18T18:27:11;92825.63;;;31.00
40968;BMP280;57377;45.130;6.038;2022-07-18T18:29:36;92848.03;;;30.90
40968;BMP280;57377;45.130;6.038;2022-07-18T18:32:02;92828.47;;;30.86
40968;BMP280;57377;45.130;6.038;2022-07-18T18:34:27;92840.13;;;30.76
40968;BMP280;57377;45.130;6.038;2022-07-18T18:36:52;92840.13;;;30.76
40968;BMP280;57377;45.130;6.038;2022-07-18T18:39:22;92832.94;;;30.67
40968;BMP280;57377;45.130;6.038;2022-07-18T18:41:48;92838.00;;;30.58
40968;BMP280;57377;45.130;6.038;2022-07-18T18:44:13;92845.25;;;30.61
40968;BMP280;57377;45.130;6.038;2022-07-18T18:46:39;92833.44;;;30.55
40968;BMP280;57377;45.130;6.038;2022-07-18T18:49:07;92843.44;;;30.54
40968;BMP280;57377;45.130;6.038;2022-07-18T18:51:33;92837.38;;;30.47
40968;BMP280;57377;45.130;6.038;2022-07-18T18:53:58;92841.28;;;30.39
40968;BMP280;57377;45.130;6.038;2022-07-18T18:56:24;92834.66;;;30.10
40968;BMP280;57377;45.130;6.038;2022-07-18T18:58:49;92841.56;;;30.11